sensor_id;sensor_type;location;lat;lon;timestamp;P1;durP1;ratioP1;P2;durP2;ratioP2
31083;SDS011;36333;51.382;0.016;2022-11-15T00:01:49;15.52;;;2.33;;
31083;SDS011;36333;51.382;0.016;2022-11-15T00:04:35;16.05;;;2.10;;
31083;SDS011;36333;51.382;0.016;2022-11-15T00:07:20;15.32;;;2.17;;
31083;SDS011;36333;51.382;0.016;2022-11-15T00:10:26;12.48;;;1.75;;
31083;SDS011;36333;51.382;0.016;2022-11-15T00:13:13;16.85;;;2.20;;
31083;SDS011;36333;51.382;0.016;2022-11-15T00:15:59;15.77;;;1.98;;
31083;SDS011;36333;51.382;0.016;2022-11-15T00:18:46;11.80;;;1.83;;
31083;SDS011;36333;51.382;0.016;2022-11-15T00:21:35;12.63;;;1.83;;
31083;SDS011;36333;51.382;0.016;2022-11-15T00:24:21;17.23;;;2.08;;
31083;SDS011;36333;51.382;0.016;2022-11-15T00:27:06;16.58;;;2.03;;
31083;SDS011;36333;51.382;0.016;2022-11-15T00:29:53;23.45;;;2.63;;
31083;SDS011;36333;51.382;0.016;2022-11-15T00:32:39;23.17;;;2.40;;
31083;SDS011;36333;51.382;0.016;2022-11-15T00:35:25;15.85;;;1.90;;
31083;SDS011;36333;51.382;0.016;2022-11-15T00:38:12;26.02;;;2.58;;
31083;SDS011;36333;51.382;0.016;2022-11-15T00:40:58;20.55;;;1.90;;
31083;SDS011;36333;51.382;0.016;2022-11-15T00:43:46;15.23;;;1.80;;
31083;SDS011;36333;51.382;0.016;2022-11-15T00:46:31;11.80;;;1.45;;
31083;SDS011;36333;51.382;0.016;2022-11-15T00:49:17;13.63;;;1.98;;
31083;SDS011;36333;51.382;0.016;2022-11-15T00:52:03;12.60;;;1.60;;
31083;SDS011;36333;51.382;0.016;2022-11-15T00:54:49;12.77;;;1.40;;
31083;SDS011;36333;51.382;0.016;2022-11-15T00:57:35;15.60;;;1.80;;
31083;SDS011;36333;51.382;0.016;2022-11-15T01:00:20;13.68;;;1.73;;
31083;SDS011;36333;51.382;0.016;2022-11-15T01:03:06;8.32;;;1.67;;
31083;SDS011;36333;51.382;0.016;2022-11-15T01:05:52;13.57;;;1.52;;
31083;SDS011;36333;51.382;0.016;2022-11-15T01:08:39;12.45;;;1.35;;
31083;SDS011;36333;51.382;0.016;2022-11-15T01:11:25;26.40;;;1.70;;
31083;SDS011;36333;51.382;0.016;2022-11-15T01:14:11;11.77;;;1.70;;
31083;SDS011;36333;51.382;0.016;2022-11-15T01:16:57;18.25;;;1.90;;
31083;SDS011;36333;51.382;0.016;2022-11-15T01:19:43;11.60;;;1.55;;
31083;SDS011;36333;51.382;0.016;2022-11-15T01:22:29;12.57;;;1.60;;
31083;SDS011;36333;51.382;0.016;2022-11-15T01:25:15;13.02;;;1.70;;
31083;SDS011;36333;51.382;0.016;2022-11-15T01:28:01;16.95;;;1.70;;
31083;SDS011;36333;51.382;0.016;2022-11-15T01:30:46;13.77;;;1.70;;
31083;SDS011;36333;51.382;0.016;2022-11-15T01:33:34;8.82;;;1.50;;
31083;SDS011;36333;51.382;0.016;2022-11-15T01:36:23;14.10;;;1.83;;
31083;SDS011;36333;51.382;0.016;2022-11-15T01:39:10;12.63;;;1.70;;
31083;SDS011;36333;51.382;0.016;2022-11-15T01:41:56;13.13;;;1.45;;
31083;SDS011;36333;51.382;0.016;2022-11-15T01:44:49;13.52;;;1.70;;
31083;SDS011;36333;51.382;0.016;2022-11-15T01:47:40;16.50;;;1.70;;
31083;SDS011;36333;51.382;0.016;2022-11-15T01:50:29;15.07;;;1.45;;
31083;SDS011;36333;51.382;0.016;2022-11-15T01:53:17;16.35;;;1.75;;
31083;SDS011;36333;51.382;0.016;2022-11-15T01:56:08;20.60;;;1.83;;
31083;SDS011;36333;51.382;0.016;2022-11-15T01:58:58;25.70;;;2.05;;
31083;SDS011;36333;51.382;0.016;2022-11-15T02:01:47;14.73;;;1.80;;
31083;SDS011;36333;51.382;0.016;2022-11-15T02:04:36;14.07;;;1.85;;
31083;SDS011;36333;51.382;0.016;2022-11-15T02:07:26;16.17;;;1.90;;
31083;SDS011;36333;51.382;0.016;2022-11-15T02:10:19;19.73;;;2.08;;
31083;SDS011;36333;51.382;0.016;2022-11-15T02:13:07;21.98;;;1.73;;
31083;SDS011;36333;51.382;0.016;2022-11-15T02:16:05;15.85;;;1.65;;
31083;SDS011;36333;51.382;0.016;2022-11-15T02:19:00;17.50;;;2.08;;
31083;SDS011;36333;51.382;0.016;2022-11-15T02:31:04;14.85;;;1.80;;
31083;SDS011;36333;51.382;0.016;2022-11-15T02:37:44;16.88;;;1.80;;
31083;SDS011;36333;51.382;0.016;2022-11-15T02:46:43;14.95;;;2.05;;
31083;SDS011;36333;51.382;0.016;2022-11-15T02:49:51;16.23;;;1.83;;
31083;SDS011;36333;51.382;0.016;2022-11-15T02:52:47;12.63;;;1.70;;
31083;SDS011;36333;51.382;0.016;2022-11-15T02:55:35;12.65;;;1.60;;
31083;SDS011;36333;51.382;0.016;2022-11-15T02:58:48;17.95;;;2.30;;
31083;SDS011;36333;51.382;0.016;2022-11-15T03:04:53;14.20;;;1.60;;
31083;SDS011;36333;51.382;0.016;2022-11-15T03:13:56;9.90;;;1.40;;
31083;SDS011;36333;51.382;0.016;2022-11-15T03:19:46;16.00;;;1.80;;
31083;SDS011;36333;51.382;0.016;2022-11-15T03:22:35;21.38;;;3.65;;
31083;SDS011;36333;51.382;0.016;2022-11-15T03:25:24;22.33;;;5.03;;
31083;SDS011;36333;51.382;0.016;2022-11-15T03:28:15;23.90;;;5.90;;
31083;SDS011;36333;51.382;0.016;2022-11-15T03:31:05;26.67;;;6.55;;
31083;SDS011;36333;51.382;0.016;2022-11-15T03:34:15;23.40;;;6.82;;
31083;SDS011;36333;51.382;0.016;2022-11-15T03:37:24;19.52;;;5.18;;
31083;SDS011;36333;51.382;0.016;2022-11-15T03:46:50;25.13;;;4.30;;
31083;SDS011;36333;51.382;0.016;2022-11-15T03:50:01;17.52;;;3.33;;
31083;SDS011;36333;51.382;0.016;2022-11-15T03:52:53;16.92;;;2.55;;
31083;SDS011;36333;51.382;0.016;2022-11-15T03:55:40;21.17;;;2.33;;
31083;SDS011;36333;51.382;0.016;2022-11-15T03:58:26;19.80;;;2.03;;
31083;SDS011;36333;51.382;0.016;2022-11-15T04:01:12;21.73;;;2.38;;
31083;SDS011;36333;51.382;0.016;2022-11-15T04:03:58;22.30;;;2.10;;
31083;SDS011;36333;51.382;0.016;2022-11-15T04:06:44;21.25;;;2.33;;
31083;SDS011;36333;51.382;0.016;2022-11-15T04:09:30;17.40;;;2.17;;
31083;SDS011;36333;51.382;0.016;2022-11-15T04:12:16;24.98;;;2.38;;
31083;SDS011;36333;51.382;0.016;2022-11-15T04:15:17;21.83;;;2.20;;
31083;SDS011;36333;51.382;0.016;2022-11-15T04:18:05;20.92;;;2.13;;
31083;SDS011;36333;51.382;0.016;2022-11-15T04:20:51;26.98;;;2.65;;
31083;SDS011;36333;51.382;0.016;2022-11-15T04:23:56;20.17;;;2.28;;
31083;SDS011;36333;51.382;0.016;2022-11-15T04:26:51;22.23;;;2.03;;
31083;SDS011;36333;51.382;0.016;2022-11-15T04:29:37;26.60;;;2.38;;
31083;SDS011;36333;51.382;0.016;2022-11-15T04:32:23;29.40;;;2.55;;
31083;SDS011;36333;51.382;0.016;2022-11-15T04:35:09;14.55;;;2.08;;
31083;SDS011;36333;51.382;0.016;2022-11-15T04:37:55;26.25;;;2.72;;
31083;SDS011;36333;51.382;0.016;2022-11-15T04:40:42;25.42;;;2.30;;
31083;SDS011;36333;51.382;0.016;2022-11-15T04:43:28;20.35;;;2.30;;
31083;SDS011;36333;51.382;0.016;2022-11-15T04:46:15;23.65;;;2.42;;
31083;SDS011;36333;51.382;0.016;2022-11-15T04:49:00;19.25;;;2.67;;
31083;SDS011;36333;51.382;0.016;2022-11-15T04:51:47;18.65;;;2.20;;
31083;SDS011;36333;51.382;0.016;2022-11-15T04:54:34;21.05;;;2.50;;
31083;SDS011;36333;51.382;0.016;2022-11-15T04:57:20;23.92;;;2.60;;
31083;SDS011;36333;51.382;0.016;2022-11-15T05:00:06;25.73;;;2.55;;
31083;SDS011;36333;51.382;0.016;2022-11-15T05:02:55;22.45;;;2.65;;
31083;SDS011;36333;51.382;0.016;2022-11-15T05:06:01;23.45;;;2.60;;
31083;SDS011;36333;51.382;0.016;2022-11-15T05:08:47;19.77;;;2.55;;
31083;SDS011;36333;51.382;0.016;2022-11-15T05:11:33;22.50;;;1.98;;
31083;SDS011;36333;51.382;0.016;2022-11-15T05:14:19;24.42;;;2.45;;
31083;SDS011;36333;51.382;0.016;2022-11-15T05:17:05;22.00;;;2.20;;
31083;SDS011;36333;51.382;0.016;2022-11-15T05:19:51;24.73;;;2.38;;
31083;SDS011;36333;51.382;0.016;2022-11-15T05:22:37;24.45;;;3.00;;
31083;SDS011;36333;51.382;0.016;2022-11-15T05:25:23;21.23;;;2.60;;
31083;SDS011;36333;51.382;0.016;2022-11-15T05:28:10;21.25;;;2.67;;
31083;SDS011;36333;51.382;0.016;2022-11-15T05:31:00;19.40;;;2.25;;
31083;SDS011;36333;51.382;0.016;2022-11-15T05:33:47;19.23;;;2.50;;
31083;SDS011;36333;51.382;0.016;2022-11-15T05:36:38;16.98;;;2.13;;
31083;SDS011;36333;51.382;0.016;2022-11-15T05:39:27;20.65;;;2.75;;
31083;SDS011;36333;51.382;0.016;2022-11-15T05:42:13;18.95;;;2.28;;
31083;SDS011;36333;51.382;0.016;2022-11-15T05:45:01;23.67;;;2.72;;
31083;SDS011;36333;51.382;0.016;2022-11-15T05:47:49;21.35;;;2.40;;
31083;SDS011;36333;51.382;0.016;2022-11-15T05:50:37;22.38;;;2.80;;
31083;SDS011;36333;51.382;0.016;2022-11-15T05:53:27;21.45;;;2.80;;
31083;SDS011;36333;51.382;0.016;2022-11-15T05:56:13;15.07;;;2.22;;
31083;SDS011;36333;51.382;0.016;2022-11-15T05:59:00;20.92;;;2.45;;
31083;SDS011;36333;51.382;0.016;2022-11-15T06:01:46;21.02;;;2.30;;
31083;SDS011;36333;51.382;0.016;2022-11-15T06:04:32;22.10;;;2.70;;
31083;SDS011;36333;51.382;0.016;2022-11-15T06:07:18;26.90;;;2.17;;
31083;SDS011;36333;51.382;0.016;2022-11-15T06:10:05;15.82;;;2.08;;
31083;SDS011;36333;51.382;0.016;2022-11-15T06:13:01;19.85;;;2.35;;
31083;SDS011;36333;51.382;0.016;2022-11-15T06:18:35;27.92;;;3.22;;
31083;SDS011;36333;51.382;0.016;2022-11-15T06:21:21;28.95;;;2.97;;
31083;SDS011;36333;51.382;0.016;2022-11-15T06:24:08;17.02;;;2.50;;
31083;SDS011;36333;51.382;0.016;2022-11-15T06:26:54;19.88;;;2.30;;
31083;SDS011;36333;51.382;0.016;2022-11-15T06:29:40;18.60;;;2.35;;
31083;SDS011;36333;51.382;0.016;2022-11-15T06:32:26;25.58;;;2.75;;
31083;SDS011;36333;51.382;0.016;2022-11-15T06:35:12;27.45;;;2.60;;
31083;SDS011;36333;51.382;0.016;2022-11-15T06:38:02;22.95;;;2.70;;
31083;SDS011;36333;51.382;0.016;2022-11-15T06:40:52;22.48;;;3.05;;
31083;SDS011;36333;51.382;0.016;2022-11-15T06:43:38;22.70;;;2.42;;
31083;SDS011;36333;51.382;0.016;2022-11-15T06:46:25;18.00;;;2.22;;
31083;SDS011;36333;51.382;0.016;2022-11-15T06:49:11;21.92;;;2.25;;
31083;SDS011;36333;51.382;0.016;2022-11-15T06:51:57;22.25;;;2.53;;
31083;SDS011;36333;51.382;0.016;2022-11-15T06:54:43;21.52;;;2.75;;
31083;SDS011;36333;51.382;0.016;2022-11-15T06:57:30;25.10;;;2.38;;
31083;SDS011;36333;51.382;0.016;2022-11-15T07:00:16;17.83;;;2.40;;
31083;SDS011;36333;51.382;0.016;2022-11-15T07:03:03;23.23;;;2.35;;
31083;SDS011;36333;51.382;0.016;2022-11-15T07:05:50;24.05;;;2.42;;
31083;SDS011;36333;51.382;0.016;2022-11-15T07:08:38;17.23;;;2.08;;
31083;SDS011;36333;51.382;0.016;2022-11-15T07:11:24;20.45;;;2.67;;
31083;SDS011;36333;51.382;0.016;2022-11-15T07:14:10;23.60;;;2.45;;
31083;SDS011;36333;51.382;0.016;2022-11-15T07:16:56;18.95;;;2.28;;
31083;SDS011;36333;51.382;0.016;2022-11-15T07:19:42;18.27;;;2.30;;
31083;SDS011;36333;51.382;0.016;2022-11-15T07:22:28;19.67;;;2.50;;
31083;SDS011;36333;51.382;0.016;2022-11-15T07:25:13;24.00;;;2.97;;
31083;SDS011;36333;51.382;0.016;2022-11-15T07:28:00;17.65;;;2.40;;
31083;SDS011;36333;51.382;0.016;2022-11-15T07:30:46;12.00;;;1.77;;
31083;SDS011;36333;51.382;0.016;2022-11-15T07:33:32;25.58;;;2.42;;
31083;SDS011;36333;51.382;0.016;2022-11-15T07:36:19;19.80;;;2.65;;
31083;SDS011;36333;51.382;0.016;2022-11-15T07:39:05;20.65;;;2.90;;
31083;SDS011;36333;51.382;0.016;2022-11-15T07:41:51;24.80;;;2.60;;
31083;SDS011;36333;51.382;0.016;2022-11-15T07:44:57;19.40;;;2.58;;
31083;SDS011;36333;51.382;0.016;2022-11-15T07:47:45;18.30;;;2.55;;
31083;SDS011;36333;51.382;0.016;2022-11-15T07:50:31;19.30;;;2.33;;
31083;SDS011;36333;51.382;0.016;2022-11-15T07:53:17;22.83;;;2.90;;
31083;SDS011;36333;51.382;0.016;2022-11-15T07:56:05;24.05;;;3.03;;
31083;SDS011;36333;51.382;0.016;2022-11-15T07:58:52;18.85;;;2.75;;
31083;SDS011;36333;51.382;0.016;2022-11-15T08:01:38;21.33;;;2.72;;
31083;SDS011;36333;51.382;0.016;2022-11-15T08:04:24;24.05;;;3.30;;
31083;SDS011;36333;51.382;0.016;2022-11-15T08:07:10;26.00;;;2.50;;
31083;SDS011;36333;51.382;0.016;2022-11-15T08:09:57;20.75;;;2.80;;
31083;SDS011;36333;51.382;0.016;2022-11-15T08:12:43;13.10;;;2.40;;
31083;SDS011;36333;51.382;0.016;2022-11-15T08:15:30;16.33;;;2.28;;
31083;SDS011;36333;51.382;0.016;2022-11-15T08:18:17;24.77;;;2.70;;
31083;SDS011;36333;51.382;0.016;2022-11-15T08:21:03;23.13;;;2.53;;
31083;SDS011;36333;51.382;0.016;2022-11-15T08:23:49;14.70;;;1.98;;
31083;SDS011;36333;51.382;0.016;2022-11-15T08:26:35;18.58;;;2.65;;
31083;SDS011;36333;51.382;0.016;2022-11-15T08:29:22;14.48;;;1.98;;
31083;SDS011;36333;51.382;0.016;2022-11-15T08:32:08;13.35;;;1.77;;
31083;SDS011;36333;51.382;0.016;2022-11-15T08:34:54;16.92;;;2.13;;
31083;SDS011;36333;51.382;0.016;2022-11-15T08:37:40;11.30;;;1.98;;
31083;SDS011;36333;51.382;0.016;2022-11-15T08:40:26;15.23;;;1.88;;
31083;SDS011;36333;51.382;0.016;2022-11-15T08:43:12;13.32;;;1.60;;
31083;SDS011;36333;51.382;0.016;2022-11-15T08:45:58;11.43;;;1.20;;
31083;SDS011;36333;51.382;0.016;2022-11-15T08:48:44;7.20;;;1.00;;
31083;SDS011;36333;51.382;0.016;2022-11-15T08:51:31;7.07;;;1.30;;
31083;SDS011;36333;51.382;0.016;2022-11-15T08:54:16;7.50;;;1.20;;
31083;SDS011;36333;51.382;0.016;2022-11-15T08:57:16;8.25;;;1.23;;
31083;SDS011;36333;51.382;0.016;2022-11-15T09:00:02;10.75;;;1.30;;
31083;SDS011;36333;51.382;0.016;2022-11-15T09:02:49;2.85;;;0.60;;
31083;SDS011;36333;51.382;0.016;2022-11-15T09:05:35;5.30;;;0.93;;
31083;SDS011;36333;51.382;0.016;2022-11-15T09:08:21;7.38;;;1.13;;
31083;SDS011;36333;51.382;0.016;2022-11-15T09:11:27;6.25;;;0.90;;
31083;SDS011;36333;51.382;0.016;2022-11-15T09:14:14;6.60;;;1.00;;
31083;SDS011;36333;51.382;0.016;2022-11-15T09:17:01;3.55;;;0.88;;
31083;SDS011;36333;51.382;0.016;2022-11-15T09:19:47;8.40;;;0.88;;
31083;SDS011;36333;51.382;0.016;2022-11-15T09:22:33;2.85;;;0.70;;
31083;SDS011;36333;51.382;0.016;2022-11-15T09:25:19;5.50;;;0.88;;
31083;SDS011;36333;51.382;0.016;2022-11-15T09:28:05;3.60;;;0.47;;
31083;SDS011;36333;51.382;0.016;2022-11-15T09:30:55;7.72;;;0.70;;
31083;SDS011;36333;51.382;0.016;2022-11-15T09:33:43;5.53;;;0.68;;
31083;SDS011;36333;51.382;0.016;2022-11-15T09:36:30;7.85;;;1.15;;
31083;SDS011;36333;51.382;0.016;2022-11-15T09:39:16;6.22;;;0.80;;
31083;SDS011;36333;51.382;0.016;2022-11-15T09:51:33;5.32;;;0.80;;
31083;SDS011;36333;51.382;0.016;2022-11-15T09:56:55;3.70;;;0.63;;
31083;SDS011;36333;51.382;0.016;2022-11-15T10:02:55;3.88;;;0.70;;
31083;SDS011;36333;51.382;0.016;2022-11-15T10:05:30;4.85;;;0.90;;
31083;SDS011;36333;51.382;0.016;2022-11-15T10:10:57;5.78;;;1.00;;
31083;SDS011;36333;51.382;0.016;2022-11-15T10:13:47;3.95;;;0.68;;
31083;SDS011;36333;51.382;0.016;2022-11-15T10:27:35;7.95;;;0.90;;
31083;SDS011;36333;51.382;0.016;2022-11-15T10:30:04;5.65;;;1.20;;
31083;SDS011;36333;51.382;0.016;2022-11-15T10:32:39;4.25;;;1.10;;
31083;SDS011;36333;51.382;0.016;2022-11-15T10:35:25;4.18;;;1.40;;
31083;SDS011;36333;51.382;0.016;2022-11-15T10:38:04;5.70;;;1.50;;
31083;SDS011;36333;51.382;0.016;2022-11-15T10:40:34;3.63;;;0.70;;
31083;SDS011;36333;51.382;0.016;2022-11-15T10:43:12;9.68;;;1.25;;
31083;SDS011;36333;51.382;0.016;2022-11-15T10:45:42;7.10;;;1.20;;
31083;SDS011;36333;51.382;0.016;2022-11-15T10:50:44;7.25;;;1.20;;
31083;SDS011;36333;51.382;0.016;2022-11-15T10:55:50;9.13;;;1.10;;
31083;SDS011;36333;51.382;0.016;2022-11-15T10:58:54;4.85;;;1.10;;
31083;SDS011;36333;51.382;0.016;2022-11-15T11:01:27;6.22;;;1.20;;
31083;SDS011;36333;51.382;0.016;2022-11-15T11:04:03;5.78;;;1.20;;
31083;SDS011;36333;51.382;0.016;2022-11-15T11:09:37;7.35;;;1.10;;
31083;SDS011;36333;51.382;0.016;2022-11-15T11:12:10;6.90;;;1.10;;
31083;SDS011;36333;51.382;0.016;2022-11-15T11:14:38;6.22;;;1.05;;
31083;SDS011;36333;51.382;0.016;2022-11-15T11:17:11;6.95;;;1.13;;
31083;SDS011;36333;51.382;0.016;2022-11-15T11:19:58;10.50;;;1.48;;
31083;SDS011;36333;51.382;0.016;2022-11-15T11:22:33;7.75;;;1.27;;
31083;SDS011;36333;51.382;0.016;2022-11-15T11:33:32;3.17;;;0.60;;
31083;SDS011;36333;51.382;0.016;2022-11-15T11:36:15;6.55;;;0.75;;
31083;SDS011;36333;51.382;0.016;2022-11-15T11:45:46;3.45;;;0.73;;
31083;SDS011;36333;51.382;0.016;2022-11-15T11:48:42;4.53;;;0.75;;
31083;SDS011;36333;51.382;0.016;2022-11-15T11:54:03;3.72;;;0.60;;
31083;SDS011;36333;51.382;0.016;2022-11-15T11:56:39;4.40;;;0.80;;
31083;SDS011;36333;51.382;0.016;2022-11-15T11:59:12;3.15;;;0.68;;
31083;SDS011;36333;51.382;0.016;2022-11-15T12:01:49;4.32;;;0.88;;
31083;SDS011;36333;51.382;0.016;2022-11-15T12:04:29;4.70;;;1.00;;
31083;SDS011;36333;51.382;0.016;2022-11-15T12:07:01;6.55;;;0.90;;
31083;SDS011;36333;51.382;0.016;2022-11-15T12:09:41;7.13;;;0.88;;
31083;SDS011;36333;51.382;0.016;2022-11-15T12:17:43;6.43;;;1.10;;
31083;SDS011;36333;51.382;0.016;2022-11-15T12:20:16;9.48;;;1.05;;
31083;SDS011;36333;51.382;0.016;2022-11-15T12:25:39;10.80;;;1.42;;
31083;SDS011;36333;51.382;0.016;2022-11-15T12:33:41;10.10;;;1.77;;
31083;SDS011;36333;51.382;0.016;2022-11-15T12:36:10;12.98;;;2.08;;
31083;SDS011;36333;51.382;0.016;2022-11-15T12:38:52;12.25;;;1.60;;
31083;SDS011;36333;51.382;0.016;2022-11-15T12:41:33;8.95;;;1.70;;
31083;SDS011;36333;51.382;0.016;2022-11-15T12:44:12;7.90;;;1.58;;
31083;SDS011;36333;51.382;0.016;2022-11-15T12:47:02;7.53;;;1.25;;
31083;SDS011;36333;51.382;0.016;2022-11-15T12:49:49;8.77;;;1.42;;
31083;SDS011;36333;51.382;0.016;2022-11-15T12:52:17;9.70;;;1.55;;
31083;SDS011;36333;51.382;0.016;2022-11-15T12:55:08;18.50;;;1.88;;
31083;SDS011;36333;51.382;0.016;2022-11-15T12:57:55;11.93;;;1.70;;
31083;SDS011;36333;51.382;0.016;2022-11-15T13:00:42;11.75;;;1.58;;
31083;SDS011;36333;51.382;0.016;2022-11-15T13:03:23;20.15;;;1.67;;
31083;SDS011;36333;51.382;0.016;2022-11-15T13:05:55;17.77;;;1.73;;
31083;SDS011;36333;51.382;0.016;2022-11-15T13:08:37;15.15;;;1.90;;
31083;SDS011;36333;51.382;0.016;2022-11-15T13:17:12;17.38;;;1.63;;
31083;SDS011;36333;51.382;0.016;2022-11-15T13:19:46;8.23;;;1.40;;
31083;SDS011;36333;51.382;0.016;2022-11-15T13:22:38;11.52;;;1.27;;
31083;SDS011;36333;51.382;0.016;2022-11-15T13:33:35;11.68;;;1.60;;
31083;SDS011;36333;51.382;0.016;2022-11-15T13:36:08;8.48;;;1.10;;
31083;SDS011;36333;51.382;0.016;2022-11-15T13:38:45;7.75;;;1.20;;
31083;SDS011;36333;51.382;0.016;2022-11-15T13:41:26;9.32;;;1.10;;
31083;SDS011;36333;51.382;0.016;2022-11-15T13:43:59;9.88;;;1.30;;
31083;SDS011;36333;51.382;0.016;2022-11-15T13:46:29;11.93;;;1.60;;
31083;SDS011;36333;51.382;0.016;2022-11-15T13:49:03;9.95;;;1.60;;
31083;SDS011;36333;51.382;0.016;2022-11-15T13:56:41;10.40;;;1.50;;
31083;SDS011;36333;51.382;0.016;2022-11-15T13:59:33;10.07;;;1.52;;
31083;SDS011;36333;51.382;0.016;2022-11-15T14:02:03;10.52;;;1.58;;
31083;SDS011;36333;51.382;0.016;2022-11-15T14:04:45;13.10;;;1.70;;
31083;SDS011;36333;51.382;0.016;2022-11-15T14:07:36;12.52;;;1.60;;
31083;SDS011;36333;51.382;0.016;2022-11-15T14:10:17;11.40;;;1.80;;
31083;SDS011;36333;51.382;0.016;2022-11-15T14:12:58;17.95;;;1.60;;
31083;SDS011;36333;51.382;0.016;2022-11-15T14:15:31;12.07;;;1.60;;
31083;SDS011;36333;51.382;0.016;2022-11-15T14:18:05;14.73;;;1.45;;
31083;SDS011;36333;51.382;0.016;2022-11-15T14:20:37;10.10;;;1.45;;
31083;SDS011;36333;51.382;0.016;2022-11-15T14:23:19;11.00;;;1.25;;
31083;SDS011;36333;51.382;0.016;2022-11-15T14:25:54;17.70;;;2.03;;
31083;SDS011;36333;51.382;0.016;2022-11-15T14:30:51;17.27;;;1.77;;
31083;SDS011;36333;51.382;0.016;2022-11-15T14:36:02;16.13;;;2.28;;
31083;SDS011;36333;51.382;0.016;2022-11-15T14:38:33;17.88;;;1.90;;
31083;SDS011;36333;51.382;0.016;2022-11-15T14:41:02;23.65;;;1.98;;
31083;SDS011;36333;51.382;0.016;2022-11-15T14:43:29;16.80;;;2.10;;
31083;SDS011;36333;51.382;0.016;2022-11-15T14:45:57;19.03;;;1.80;;
31083;SDS011;36333;51.382;0.016;2022-11-15T14:48:24;11.23;;;1.90;;
31083;SDS011;36333;51.382;0.016;2022-11-15T14:50:52;12.73;;;1.83;;
31083;SDS011;36333;51.382;0.016;2022-11-15T14:53:19;16.08;;;2.08;;
31083;SDS011;36333;51.382;0.016;2022-11-15T14:55:48;16.65;;;2.13;;
31083;SDS011;36333;51.382;0.016;2022-11-15T14:58:16;13.63;;;1.88;;
31083;SDS011;36333;51.382;0.016;2022-11-15T15:00:44;14.27;;;1.77;;
31083;SDS011;36333;51.382;0.016;2022-11-15T15:03:11;15.48;;;1.75;;
31083;SDS011;36333;51.382;0.016;2022-11-15T15:08:08;15.35;;;1.83;;
31083;SDS011;36333;51.382;0.016;2022-11-15T15:10:37;19.77;;;2.13;;
31083;SDS011;36333;51.382;0.016;2022-11-15T15:13:14;12.57;;;1.67;;
31083;SDS011;36333;51.382;0.016;2022-11-15T15:15:42;18.98;;;2.05;;
31083;SDS011;36333;51.382;0.016;2022-11-15T15:18:09;19.53;;;2.30;;
31083;SDS011;36333;51.382;0.016;2022-11-15T15:23:24;20.45;;;2.20;;
31083;SDS011;36333;51.382;0.016;2022-11-15T15:25:56;25.75;;;2.50;;
31083;SDS011;36333;51.382;0.016;2022-11-15T15:30:58;24.08;;;2.35;;
31083;SDS011;36333;51.382;0.016;2022-11-15T15:33:26;24.00;;;2.50;;
31083;SDS011;36333;51.382;0.016;2022-11-15T15:35:53;26.00;;;2.60;;
31083;SDS011;36333;51.382;0.016;2022-11-15T15:38:21;29.15;;;2.10;;
31083;SDS011;36333;51.382;0.016;2022-11-15T15:40:48;23.13;;;2.47;;
31083;SDS011;36333;51.382;0.016;2022-11-15T15:43:17;28.30;;;3.20;;
31083;SDS011;36333;51.382;0.016;2022-11-15T15:45:45;21.00;;;2.50;;
31083;SDS011;36333;51.382;0.016;2022-11-15T15:48:13;26.70;;;2.78;;
31083;SDS011;36333;51.382;0.016;2022-11-15T15:50:42;20.27;;;2.30;;
31083;SDS011;36333;51.382;0.016;2022-11-15T15:53:10;23.42;;;2.70;;
31083;SDS011;36333;51.382;0.016;2022-11-15T15:55:39;19.33;;;2.10;;
31083;SDS011;36333;51.382;0.016;2022-11-15T15:58:06;30.35;;;2.95;;
31083;SDS011;36333;51.382;0.016;2022-11-15T16:03:02;25.40;;;2.47;;
31083;SDS011;36333;51.382;0.016;2022-11-15T16:05:30;19.98;;;2.13;;
31083;SDS011;36333;51.382;0.016;2022-11-15T16:07:57;24.92;;;2.95;;
31083;SDS011;36333;51.382;0.016;2022-11-15T16:10:26;29.63;;;3.15;;
31083;SDS011;36333;51.382;0.016;2022-11-15T16:12:57;22.73;;;2.47;;
31083;SDS011;36333;51.382;0.016;2022-11-15T16:15:25;28.67;;;3.35;;
31083;SDS011;36333;51.382;0.016;2022-11-15T16:17:56;34.55;;;3.40;;
31083;SDS011;36333;51.382;0.016;2022-11-15T16:20:32;27.92;;;3.08;;
31083;SDS011;36333;51.382;0.016;2022-11-15T16:23:07;31.92;;;3.17;;
31083;SDS011;36333;51.382;0.016;2022-11-15T16:25:46;26.30;;;3.00;;
31083;SDS011;36333;51.382;0.016;2022-11-15T16:28:16;29.23;;;3.22;;
31083;SDS011;36333;51.382;0.016;2022-11-15T16:30:44;33.72;;;3.33;;
31083;SDS011;36333;51.382;0.016;2022-11-15T16:33:11;22.95;;;3.10;;
31083;SDS011;36333;51.382;0.016;2022-11-15T16:35:39;25.67;;;3.55;;
31083;SDS011;36333;51.382;0.016;2022-11-15T16:38:08;32.03;;;3.35;;
31083;SDS011;36333;51.382;0.016;2022-11-15T16:40:41;23.92;;;3.63;;
31083;SDS011;36333;51.382;0.016;2022-11-15T16:43:09;33.33;;;3.17;;
31083;SDS011;36333;51.382;0.016;2022-11-15T16:45:37;29.80;;;3.45;;
31083;SDS011;36333;51.382;0.016;2022-11-15T16:48:04;23.60;;;3.13;;
31083;SDS011;36333;51.382;0.016;2022-11-15T16:50:33;33.15;;;2.75;;
31083;SDS011;36333;51.382;0.016;2022-11-15T16:53:06;29.13;;;3.53;;
31083;SDS011;36333;51.382;0.016;2022-11-15T16:55:34;34.25;;;3.53;;
31083;SDS011;36333;51.382;0.016;2022-11-15T16:58:01;35.70;;;3.47;;
31083;SDS011;36333;51.382;0.016;2022-11-15T17:00:29;26.10;;;3.75;;
31083;SDS011;36333;51.382;0.016;2022-11-15T17:02:56;25.17;;;3.22;;
31083;SDS011;36333;51.382;0.016;2022-11-15T17:05:24;39.60;;;3.97;;
31083;SDS011;36333;51.382;0.016;2022-11-15T17:07:54;30.75;;;3.85;;
31083;SDS011;36333;51.382;0.016;2022-11-15T17:10:22;26.65;;;3.67;;
31083;SDS011;36333;51.382;0.016;2022-11-15T17:12:51;27.60;;;3.30;;
31083;SDS011;36333;51.382;0.016;2022-11-15T17:15:21;33.72;;;3.92;;
31083;SDS011;36333;51.382;0.016;2022-11-15T17:17:51;27.95;;;3.47;;
31083;SDS011;36333;51.382;0.016;2022-11-15T17:20:21;30.45;;;3.58;;
31083;SDS011;36333;51.382;0.016;2022-11-15T17:22:50;29.48;;;3.47;;
31083;SDS011;36333;51.382;0.016;2022-11-15T17:27:46;30.13;;;3.55;;
31083;SDS011;36333;51.382;0.016;2022-11-15T17:30:14;35.97;;;4.20;;
31083;SDS011;36333;51.382;0.016;2022-11-15T17:32:42;37.35;;;4.20;;
31083;SDS011;36333;51.382;0.016;2022-11-15T17:35:10;38.10;;;4.80;;
31083;SDS011;36333;51.382;0.016;2022-11-15T17:37:42;38.40;;;4.75;;
31083;SDS011;36333;51.382;0.016;2022-11-15T17:40:09;30.92;;;4.65;;
31083;SDS011;36333;51.382;0.016;2022-11-15T17:42:41;29.98;;;4.57;;
31083;SDS011;36333;51.382;0.016;2022-11-15T17:45:09;37.42;;;5.25;;
31083;SDS011;36333;51.382;0.016;2022-11-15T17:47:38;30.52;;;4.18;;
31083;SDS011;36333;51.382;0.016;2022-11-15T17:50:05;30.60;;;4.28;;
31083;SDS011;36333;51.382;0.016;2022-11-15T17:52:33;34.97;;;4.40;;
31083;SDS011;36333;51.382;0.016;2022-11-15T17:55:00;24.42;;;4.63;;
31083;SDS011;36333;51.382;0.016;2022-11-15T17:57:28;35.07;;;3.93;;
31083;SDS011;36333;51.382;0.016;2022-11-15T17:59:55;20.52;;;2.92;;
31083;SDS011;36333;51.382;0.016;2022-11-15T18:02:23;25.37;;;2.93;;
31083;SDS011;36333;51.382;0.016;2022-11-15T18:04:50;24.20;;;3.10;;
31083;SDS011;36333;51.382;0.016;2022-11-15T18:07:17;22.70;;;3.27;;
31083;SDS011;36333;51.382;0.016;2022-11-15T18:09:45;18.73;;;2.97;;
31083;SDS011;36333;51.382;0.016;2022-11-15T18:12:12;16.23;;;2.30;;
31083;SDS011;36333;51.382;0.016;2022-11-15T18:14:40;14.43;;;2.35;;
31083;SDS011;36333;51.382;0.016;2022-11-15T18:17:08;14.55;;;2.10;;
31083;SDS011;36333;51.382;0.016;2022-11-15T18:19:35;14.27;;;1.93;;
31083;SDS011;36333;51.382;0.016;2022-11-15T18:22:03;14.55;;;2.08;;
31083;SDS011;36333;51.382;0.016;2022-11-15T18:24:34;14.43;;;1.60;;
31083;SDS011;36333;51.382;0.016;2022-11-15T18:27:04;13.20;;;1.60;;
31083;SDS011;36333;51.382;0.016;2022-11-15T18:29:32;11.15;;;1.20;;